createdAt,value
2019-05-30T00:00:42.216Z,101382.47
2019-05-30T00:03:09.159Z,101383.94
2019-05-30T00:05:35.889Z,101391.66
2019-05-30T00:08:02.877Z,101385.75
2019-05-30T00:10:29.592Z,101375.58
2019-05-30T00:12:56.713Z,101379.52
2019-05-30T00:15:24.111Z,101379.16
2019-05-30T00:17:50.732Z,101377.41
2019-05-30T00:20:17.490Z,101376.56
2019-05-30T00:22:44.120Z,101368.13
2019-05-30T00:26:07.618Z,101383.52
2019-05-30T00:28:34.458Z,101390.21
2019-05-30T00:31:02.489Z,101402.75
2019-05-30T00:33:29.401Z,101398.76
2019-05-30T00:35:56.064Z,101411.05
2019-05-30T00:38:22.780Z,101406.32
2019-05-30T00:40:49.658Z,101404.83
2019-05-30T00:43:16.325Z,101404.58
2019-05-30T00:45:42.986Z,101404.44
2019-05-30T00:48:11.058Z,101403.16
2019-05-30T00:50:37.705Z,101411.51
2019-05-30T00:53:05.362Z,101401.62
2019-05-30T00:55:32.430Z,101410.61
2019-05-30T00:58:00.301Z,101417.91
2019-05-30T01:00:42.025Z,101415.42
2019-05-30T01:02:59.383Z,101403.51
2019-05-30T01:05:27.214Z,101413.25
2019-05-30T01:07:54.064Z,101402.30
2019-05-30T01:10:20.986Z,101413.66
2019-05-30T01:12:47.658Z,101414.20
2019-05-30T01:15:15.081Z,101409.48
2019-05-30T01:17:41.777Z,101411.68
2019-05-30T01:20:09.711Z,101410.61
2019-05-30T01:22:36.663Z,101402.75
2019-05-30T01:25:06.077Z,101412.48
2019-05-30T01:27:33.409Z,101405.68
2019-05-30T01:30:01.525Z,101412.05
2019-05-30T01:32:29.947Z,101411.77
2019-05-30T01:34:59.581Z,101421.06
2019-05-30T01:37:26.910Z,101419.00
2019-05-30T01:39:55.308Z,101415.45
2019-05-30T01:42:23.674Z,101416.72
2019-05-30T01:44:50.441Z,101411.02
2019-05-30T01:47:17.198Z,101412.26
2019-05-30T01:49:43.944Z,101407.02
2019-05-30T01:52:10.611Z,101407.02
2019-05-30T01:54:37.269Z,101405.37
2019-05-30T01:57:04.655Z,101405.34
2019-05-30T01:59:31.560Z,101403.33
2019-05-30T02:02:55.736Z,101402.92
2019-05-30T02:05:22.651Z,101399.82
2019-05-30T02:07:49.334Z,101394.27
2019-05-30T02:10:16.340Z,101403.33
2019-05-30T02:12:42.987Z,101402.03
2019-05-30T02:16:07.822Z,101404.34
2019-05-30T02:18:34.952Z,101405.81
2019-05-30T02:21:02.168Z,101405.38
2019-05-30T02:23:29.052Z,101410.51
2019-05-30T02:25:55.634Z,101400.51
2019-05-30T02:28:22.345Z,101408.08
2019-05-30T02:30:49.140Z,101408.15
2019-05-30T02:33:15.766Z,101409.78
2019-05-30T02:35:42.507Z,101406.72
2019-05-30T02:38:10.029Z,101406.31
2019-05-30T02:40:37.983Z,101411.16
2019-05-30T02:43:07.629Z,101411.34
2019-05-30T02:45:34.959Z,101413.93
2019-05-30T02:48:03.066Z,101422.33
2019-05-30T02:50:30.703Z,101423.58
2019-05-30T02:52:57.353Z,101421.27
2019-05-30T02:55:24.267Z,101423.47
2019-05-30T02:57:50.905Z,101425.45
2019-05-30T03:00:23.196Z,101430.53
2019-05-30T03:02:49.943Z,101430.09
2019-05-30T03:05:17.793Z,101430.69
2019-05-30T03:07:44.752Z,101425.67
2019-05-30T03:10:14.871Z,101435.59
2019-05-30T03:12:41.164Z,101437.80
2019-05-30T03:15:11.458Z,101437.44
2019-05-30T03:17:37.288Z,101445.33
2019-05-30T03:20:13.663Z,101453.45
2019-05-30T03:22:34.078Z,101459.95
2019-05-30T03:25:02.964Z,101458.70
2019-05-30T03:27:29.806Z,101461.70
2019-05-30T03:29:56.650Z,101470.92
2019-05-30T03:33:02.195Z,101474.75
2019-05-30T03:34:53.107Z,101474.34
2019-05-30T03:37:28.751Z,101483.56
2019-05-30T03:39:48.495Z,101483.28
2019-05-30T03:42:16.139Z,101485.33
2019-05-30T03:44:43.123Z,101489.09
2019-05-30T03:47:15.583Z,101482.41
2019-05-30T03:49:46.869Z,101487.23
2019-05-30T03:52:17.270Z,101482.33
2019-05-30T03:54:45.461Z,101480.58
2019-05-30T03:57:17.876Z,101473.86
2019-05-30T03:59:48.311Z,101472.41
2019-05-30T04:02:20.902Z,101474.52
2019-05-30T04:04:53.264Z,101482.59
2019-05-30T04:07:25.612Z,101491.05
2019-05-30T04:09:56.034Z,101483.59
2019-05-30T04:12:28.529Z,101486.52
2019-05-30T04:15:00.796Z,101486.31
2019-05-30T04:17:27.402Z,101491.75
2019-05-30T04:19:53.965Z,101485.41
2019-05-30T04:22:21.883Z,101487.82
2019-05-30T04:24:48.616Z,101488.00
2019-05-30T04:27:16.098Z,101484.60
2019-05-30T04:29:46.644Z,101493.42
2019-05-30T04:32:14.414Z,101496.41
2019-05-30T04:34:41.313Z,101496.38
2019-05-30T04:37:08.315Z,101499.81
2019-05-30T04:39:35.426Z,101503.72
2019-05-30T04:42:02.278Z,101507.42
2019-05-30T04:44:31.940Z,101507.73
2019-05-30T04:46:58.529Z,101504.58
2019-05-30T04:49:25.245Z,101506.12
2019-05-30T04:51:51.888Z,101505.77
2019-05-30T04:54:19.138Z,101514.08
2019-05-30T04:56:47.198Z,101509.20
2019-05-30T04:59:15.248Z,101516.52
2019-05-30T05:01:42.385Z,101515.20
2019-05-30T05:04:08.952Z,101509.16
2019-05-30T05:06:35.811Z,101503.38
2019-05-30T05:09:05.284Z,101501.21
2019-05-30T05:11:32.008Z,101503.40
2019-05-30T05:13:58.795Z,101501.77
2019-05-30T05:16:34.970Z,101506.86
2019-05-30T05:18:53.928Z,101507.44
2019-05-30T05:21:21.061Z,101510.46
2019-05-30T05:23:47.791Z,101510.98
2019-05-30T05:26:15.425Z,101515.64
2019-05-30T05:28:42.381Z,101513.59
2019-05-30T05:31:09.323Z,101517.86
2019-05-30T05:34:32.021Z,101509.28
2019-05-30T05:36:58.796Z,101517.81
2019-05-30T05:39:25.567Z,101527.45
2019-05-30T05:41:52.139Z,101519.05
2019-05-30T05:44:18.710Z,101522.38
2019-05-30T05:46:45.651Z,101516.91
2019-05-30T05:49:12.230Z,101510.53
2019-05-30T05:51:38.895Z,101513.92
2019-05-30T05:54:05.570Z,101514.17
2019-05-30T05:56:32.362Z,101511.36
2019-05-30T05:58:59.231Z,101517.53
2019-05-30T06:01:25.969Z,101515.44
2019-05-30T06:03:52.579Z,101515.20
2019-05-30T06:06:21.317Z,101522.30
2019-05-30T06:08:49.359Z,101519.99
2019-05-30T06:11:16.557Z,101518.68
2019-05-30T06:13:43.757Z,101522.76
2019-05-30T06:17:07.012Z,101514.83
2019-05-30T06:19:46.001Z,101518.86
2019-05-30T06:22:04.693Z,101519.18
2019-05-30T06:24:32.394Z,101509.37
2019-05-30T06:26:59.266Z,101522.61
2019-05-30T06:29:26.272Z,101517.77
2019-05-30T06:31:53.185Z,101518.52
2019-05-30T06:34:31.361Z,101525.09
2019-05-30T06:36:48.601Z,101520.77
2019-05-30T06:39:15.348Z,101516.25
2019-05-30T06:41:42.043Z,101522.91
2019-05-30T06:44:08.681Z,101522.50
2019-05-30T06:46:35.337Z,101528.00
2019-05-30T06:49:02.290Z,101516.93
2019-05-30T06:51:29.199Z,101514.83
2019-05-30T06:53:55.981Z,101515.89
2019-05-30T06:56:23.295Z,101526.34
2019-05-30T06:58:50.195Z,101529.79
2019-05-30T07:01:16.860Z,101524.05
2019-05-30T07:03:43.898Z,101519.16
2019-05-30T07:06:11.329Z,101523.68
2019-05-30T07:08:38.603Z,101521.50
2019-05-30T07:11:05.381Z,101521.83
2019-05-30T07:13:33.694Z,101522.56
2019-05-30T07:16:00.807Z,101515.53
2019-05-30T07:18:31.014Z,101518.25
2019-05-30T07:20:57.614Z,101519.77
2019-05-30T07:23:25.746Z,101523.81
2019-05-30T07:25:52.712Z,101516.75
2019-05-30T07:28:19.714Z,101521.42
2019-05-30T07:30:46.396Z,101524.30
2019-05-30T07:33:13.173Z,101519.28
2019-05-30T07:35:39.857Z,101511.68
2019-05-30T07:38:06.580Z,101520.11
2019-05-30T07:40:33.349Z,101525.58
2019-05-30T07:43:00.252Z,101526.22
2019-05-30T07:45:27.305Z,101525.61
2019-05-30T07:47:53.847Z,101522.58
2019-05-30T07:50:21.868Z,101518.67
2019-05-30T07:52:48.849Z,101511.25
2019-05-30T07:55:17.916Z,101517.78
2019-05-30T07:57:44.587Z,101517.00
2019-05-30T08:00:14.672Z,101525.65
2019-05-30T08:02:42.197Z,101525.08
2019-05-30T08:05:23.706Z,101525.98
2019-05-30T08:07:39.073Z,101515.93
2019-05-30T08:10:10.374Z,101522.67
2019-05-30T08:12:38.258Z,101521.53
2019-05-30T08:15:10.000Z,101514.91
2019-05-30T08:17:37.865Z,101514.99
2019-05-30T08:20:07.392Z,101508.13
2019-05-30T08:22:34.229Z,101515.22
2019-05-30T08:25:01.169Z,101519.79
2019-05-30T08:27:28.097Z,101521.30
2019-05-30T08:29:55.261Z,101514.47
2019-05-30T08:32:21.963Z,101523.87
2019-05-30T08:34:48.558Z,101511.11
2019-05-30T08:37:15.158Z,101513.78
2019-05-30T08:39:41.896Z,101520.20
2019-05-30T08:42:08.665Z,101514.14
2019-05-30T08:44:36.489Z,101509.57
2019-05-30T08:47:03.364Z,101511.06
2019-05-30T08:49:34.032Z,101500.65
2019-05-30T08:52:00.996Z,101503.23
2019-05-30T08:54:27.699Z,101501.45
2019-05-30T08:56:54.400Z,101503.58
2019-05-30T09:00:18.334Z,101500.88
2019-05-30T09:02:45.128Z,101498.91
2019-05-30T09:05:12.465Z,101501.87
2019-05-30T09:07:57.716Z,101496.98
2019-05-30T09:10:24.679Z,101489.52
2019-05-30T09:12:51.371Z,101488.42
2019-05-30T09:15:21.884Z,101492.91
2019-05-30T09:17:48.113Z,101495.80
2019-05-30T09:20:15.634Z,101495.06
2019-05-30T09:22:43.759Z,101497.63
2019-05-30T09:25:12.735Z,101492.51
2019-05-30T09:27:40.867Z,101489.53
2019-05-30T09:30:13.320Z,101491.92
2019-05-30T09:32:41.291Z,101492.31
2019-05-30T09:35:10.475Z,101488.30
2019-05-30T09:37:37.144Z,101491.06
2019-05-30T09:40:28.205Z,101487.19
2019-05-30T09:42:54.795Z,101483.22
2019-05-30T09:45:52.416Z,101478.86
2019-05-30T09:48:19.139Z,101477.27
2019-05-30T09:50:46.789Z,101476.05
2019-05-30T09:53:13.824Z,101476.66
2019-05-30T09:55:41.588Z,101471.05
2019-05-30T09:58:09.297Z,101473.78
2019-05-30T10:00:36.333Z,101470.23
2019-05-30T10:03:03.960Z,101476.31
2019-05-30T10:05:30.602Z,101462.53
2019-05-30T10:07:57.163Z,101467.13
2019-05-30T10:10:24.447Z,101469.34
2019-05-30T10:12:52.501Z,101458.52
2019-05-30T10:15:22.032Z,101459.55
2019-05-30T10:17:50.084Z,101465.11
2019-05-30T10:20:19.026Z,101462.66
2019-05-30T10:22:47.045Z,101465.77
2019-05-30T10:25:15.211Z,101459.48
2019-05-30T10:27:43.363Z,101453.08
2019-05-30T10:30:12.264Z,101456.17
2019-05-30T10:32:39.112Z,101454.14
2019-05-30T10:35:07.615Z,101454.03
2019-05-30T10:37:34.513Z,101448.93
2019-05-30T10:40:05.569Z,101438.80
2019-05-30T10:42:32.464Z,101446.41
2019-05-30T10:44:59.183Z,101447.72
2019-05-30T10:47:26.159Z,101437.09
2019-05-30T10:49:53.585Z,101434.59
2019-05-30T10:52:20.550Z,101434.75
2019-05-30T10:54:47.920Z,101434.30
2019-05-30T10:57:14.861Z,101429.11
2019-05-30T10:59:41.607Z,101429.23
2019-05-30T11:02:08.387Z,101429.06
2019-05-30T11:04:35.361Z,101433.58
2019-05-30T11:07:11.761Z,101428.80
2019-05-30T11:09:42.193Z,101427.86
2019-05-30T11:12:08.849Z,101427.47
2019-05-30T11:14:35.419Z,101420.23
2019-05-30T11:17:02.080Z,101424.98
2019-05-30T11:19:28.809Z,101429.70
2019-05-30T11:21:56.255Z,101432.38
2019-05-30T11:24:23.504Z,101426.67
2019-05-30T11:26:50.970Z,101425.39
2019-05-30T11:29:18.784Z,101425.32
2019-05-30T11:31:45.407Z,101427.48
2019-05-30T11:34:12.381Z,101423.50
2019-05-30T11:36:39.233Z,101426.23
2019-05-30T11:39:06.111Z,101425.31
2019-05-30T11:41:32.943Z,101427.39
2019-05-30T11:44:03.310Z,101427.84
2019-05-30T11:46:28.421Z,101418.75
2019-05-30T11:48:55.691Z,101419.55
2019-05-30T11:51:22.590Z,101419.37
2019-05-30T11:53:49.777Z,101415.66
2019-05-30T11:56:16.541Z,101415.05
2019-05-30T11:58:43.346Z,101418.86
2019-05-30T12:01:10.151Z,101425.48
2019-05-30T12:03:38.740Z,101414.23
2019-05-30T12:06:05.508Z,101414.66
2019-05-30T12:08:32.260Z,101408.34
2019-05-30T12:11:01.233Z,101403.73
2019-05-30T12:13:28.307Z,101401.11
2019-05-30T12:15:55.414Z,101402.17
2019-05-30T12:18:22.459Z,101397.70
2019-05-30T12:20:49.209Z,101402.83
2019-05-30T12:23:15.772Z,101398.17
2019-05-30T12:25:42.608Z,101400.04
2019-05-30T12:29:06.172Z,101394.30
2019-05-30T12:31:32.898Z,101400.45
2019-05-30T12:34:02.858Z,101394.84
2019-05-30T12:36:29.897Z,101401.56
2019-05-30T12:38:56.688Z,101392.84
2019-05-30T12:41:23.722Z,101396.52
2019-05-30T12:43:52.944Z,101401.95
2019-05-30T12:46:19.740Z,101394.83
2019-05-30T12:48:46.356Z,101396.67
2019-05-30T12:51:13.200Z,101392.20
2019-05-30T12:53:39.803Z,101389.87
2019-05-30T12:56:06.853Z,101377.48
2019-05-30T12:58:34.044Z,101384.31
2019-05-30T13:01:00.980Z,101393.66
2019-05-30T13:03:27.766Z,101387.15
2019-05-30T13:05:55.082Z,101385.11
2019-05-30T13:08:23.349Z,101398.66
2019-05-30T13:10:50.012Z,101396.70
2019-05-30T13:13:16.872Z,101401.52
2019-05-30T13:15:43.601Z,101393.75
2019-05-30T13:18:10.327Z,101393.16
2019-05-30T13:20:37.307Z,101397.00
2019-05-30T13:23:04.762Z,101395.04
2019-05-30T13:25:31.921Z,101397.70
2019-05-30T13:28:03.284Z,101388.91
2019-05-30T13:30:27.721Z,101381.67
2019-05-30T13:32:54.319Z,101385.00
2019-05-30T13:35:21.287Z,101385.89
2019-05-30T13:37:47.913Z,101381.05
2019-05-30T13:40:24.803Z,101381.45
2019-05-30T13:42:46.058Z,101377.89
2019-05-30T13:46:08.911Z,101378.05
2019-05-30T13:48:35.579Z,101372.27
2019-05-30T13:51:03.281Z,101364.94
2019-05-30T13:53:30.184Z,101368.17
2019-05-30T13:55:57.012Z,101366.51
2019-05-30T13:59:22.159Z,101372.25
2019-05-30T14:01:48.915Z,101367.84
2019-05-30T14:04:15.809Z,101369.57
2019-05-30T14:06:42.956Z,101355.55
2019-05-30T14:09:10.473Z,101355.63
2019-05-30T14:11:37.496Z,101358.52
2019-05-30T14:14:06.746Z,101357.33
2019-05-30T14:16:34.059Z,101354.30
2019-05-30T14:19:01.061Z,101352.73
2019-05-30T14:21:29.885Z,101355.83
2019-05-30T14:23:56.458Z,101351.72
2019-05-30T14:26:41.821Z,101348.78
2019-05-30T14:29:09.771Z,101342.66
2019-05-30T14:31:36.990Z,101352.08
2019-05-30T14:34:04.352Z,101347.48
2019-05-30T14:36:31.288Z,101344.28
2019-05-30T14:38:59.099Z,101338.17
2019-05-30T14:41:26.061Z,101340.90
2019-05-30T14:43:52.791Z,101342.59
2019-05-30T14:46:19.849Z,101337.00
2019-05-30T14:48:46.701Z,101342.02
2019-05-30T14:51:13.444Z,101339.20
2019-05-30T14:53:40.288Z,101338.33
2019-05-30T14:56:06.988Z,101341.45
2019-05-30T14:58:33.708Z,101340.01
2019-05-30T15:01:00.486Z,101338.20
2019-05-30T15:03:27.409Z,101335.46
2019-05-30T15:05:55.667Z,101333.49
2019-05-30T15:08:22.422Z,101335.45
2019-05-30T15:10:49.113Z,101332.22
2019-05-30T15:13:15.861Z,101335.55
2019-05-30T15:15:44.142Z,101335.02
2019-05-30T15:18:11.405Z,101337.36
2019-05-30T15:20:38.482Z,101340.77
2019-05-30T15:23:05.487Z,101335.51
2019-05-30T15:25:32.743Z,101335.89
2019-05-30T15:27:59.508Z,101343.77
2019-05-30T15:30:26.307Z,101342.73
2019-05-30T15:32:53.089Z,101340.13
2019-05-30T15:35:20.125Z,101335.95
2019-05-30T15:37:48.524Z,101334.14
2019-05-30T15:40:17.946Z,101326.06
2019-05-30T15:42:44.538Z,101324.38
2019-05-30T15:45:14.162Z,101319.98
2019-05-30T15:47:40.865Z,101327.81
2019-05-30T15:50:10.493Z,101319.77
2019-05-30T15:52:38.049Z,101321.98
2019-05-30T15:55:09.095Z,101324.62
2019-05-30T15:57:36.382Z,101323.64
2019-05-30T16:00:07.721Z,101320.02
2019-05-30T16:02:34.422Z,101321.72
2019-05-30T16:05:01.409Z,101325.84
2019-05-30T16:07:32.506Z,101321.29
2019-05-30T16:09:59.696Z,101317.06
2019-05-30T16:12:26.386Z,101319.41
2019-05-30T16:14:53.150Z,101313.83
2019-05-30T16:17:19.988Z,101317.07
2019-05-30T16:19:46.629Z,101317.33
2019-05-30T16:22:14.294Z,101327.95
2019-05-30T16:24:41.609Z,101332.73
2019-05-30T16:27:08.186Z,101329.91
2019-05-30T16:29:34.860Z,101334.06
2019-05-30T16:32:01.674Z,101340.22
2019-05-30T16:34:28.584Z,101333.52
2019-05-30T16:36:55.230Z,101335.94
2019-05-30T16:39:22.577Z,101339.34
2019-05-30T16:41:49.318Z,101335.97
2019-05-30T16:44:16.259Z,101337.45
2019-05-30T16:46:43.252Z,101340.30
2019-05-30T16:49:09.963Z,101337.01
2019-05-30T16:51:37.098Z,101342.19
2019-05-30T16:54:04.974Z,101338.91
2019-05-30T16:56:31.887Z,101333.02
2019-05-30T16:58:58.855Z,101343.41
2019-05-30T17:01:26.113Z,101343.51
2019-05-30T17:03:53.051Z,101342.72
2019-05-30T17:06:20.035Z,101344.72
2019-05-30T17:08:46.790Z,101347.04
2019-05-30T17:11:13.510Z,101350.69
2019-05-30T17:13:40.132Z,101349.81
2019-05-30T17:16:06.762Z,101345.98
2019-05-30T17:18:33.499Z,101347.73
2019-05-30T17:21:00.379Z,101346.02
2019-05-30T17:23:27.280Z,101341.27
2019-05-30T17:25:54.149Z,101350.03
2019-05-30T17:28:22.312Z,101348.87
2019-05-30T17:30:49.694Z,101354.77
2019-05-30T17:33:19.619Z,101347.71
2019-05-30T17:35:45.392Z,101348.89
2019-05-30T17:38:11.975Z,101345.58
2019-05-30T17:40:44.603Z,101346.39
2019-05-30T17:43:07.351Z,101342.30
2019-05-30T17:45:34.417Z,101345.84
2019-05-30T17:48:15.611Z,101345.16
2019-05-30T17:50:30.215Z,101337.14
2019-05-30T17:52:57.384Z,101342.00
2019-05-30T17:55:24.274Z,101338.59
2019-05-30T17:57:51.179Z,101355.08
2019-05-30T18:00:18.393Z,101350.69
2019-05-30T18:02:45.433Z,101350.23
2019-05-30T18:05:13.446Z,101352.70
2019-05-30T18:07:40.284Z,101352.56
2019-05-30T18:10:07.990Z,101363.56
2019-05-30T18:12:35.172Z,101364.28
2019-05-30T18:15:05.854Z,101358.75
2019-05-30T18:17:32.748Z,101366.70
2019-05-30T18:20:00.043Z,101366.23
2019-05-30T18:22:27.574Z,101367.88
2019-05-30T18:24:54.913Z,101371.83
2019-05-30T18:27:21.720Z,101375.50
2019-05-30T18:29:49.180Z,101373.53
2019-05-30T18:32:16.909Z,101373.73
2019-05-30T18:34:43.737Z,101372.40
2019-05-30T18:37:10.797Z,101375.19
2019-05-30T18:39:37.705Z,101370.33
2019-05-30T18:42:05.003Z,101376.44
2019-05-30T18:44:33.184Z,101379.78
2019-05-30T18:47:00.774Z,101380.17
2019-05-30T18:49:27.518Z,101385.48
2019-05-30T18:51:54.347Z,101385.66
2019-05-30T18:54:22.927Z,101383.50
2019-05-30T18:56:49.634Z,101381.32
2019-05-30T18:59:16.606Z,101381.06
2019-05-30T19:01:46.210Z,101389.27
2019-05-30T19:04:13.100Z,101386.22
2019-05-30T19:06:40.120Z,101391.23
2019-05-30T19:09:07.187Z,101388.31
2019-05-30T19:11:36.340Z,101392.36
2019-05-30T19:14:04.077Z,101399.58
2019-05-30T19:16:32.325Z,101406.28
2019-05-30T19:18:59.968Z,101397.94
2019-05-30T19:21:27.921Z,101403.99
2019-05-30T19:23:56.391Z,101401.78
2019-05-30T19:26:23.153Z,101405.36
2019-05-30T19:28:50.393Z,101401.22
2019-05-30T19:31:17.174Z,101403.97
2019-05-30T19:33:44.190Z,101401.68
2019-05-30T19:36:11.099Z,101404.91
2019-05-30T19:38:38.245Z,101405.31
2019-05-30T19:41:05.219Z,101405.08
2019-05-30T19:43:33.795Z,101413.83
2019-05-30T19:46:01.078Z,101417.89
2019-05-30T19:48:28.278Z,101418.60
2019-05-30T19:50:55.531Z,101426.23
2019-05-30T19:53:22.372Z,101424.98
2019-05-30T19:55:49.338Z,101434.66
2019-05-30T19:58:19.575Z,101434.39
2019-05-30T20:00:57.783Z,101435.47
2019-05-30T20:03:15.223Z,101432.22
2019-05-30T20:05:42.154Z,101432.63
2019-05-30T20:08:08.788Z,101437.11
2019-05-30T20:10:35.609Z,101435.53
2019-05-30T20:13:02.230Z,101435.50
2019-05-30T20:15:29.015Z,101436.13
2019-05-30T20:17:55.639Z,101434.10
2019-05-30T20:20:22.486Z,101431.88
2019-05-30T20:22:49.227Z,101432.82
2019-05-30T20:25:17.596Z,101430.81
2019-05-30T20:27:44.325Z,101436.79
2019-05-30T20:30:13.975Z,101435.59
2019-05-30T20:32:40.845Z,101436.63
2019-05-30T20:35:09.597Z,101439.60
2019-05-30T20:37:36.750Z,101447.67
2019-05-30T20:40:06.614Z,101440.66
2019-05-30T20:42:34.650Z,101443.23
2019-05-30T20:45:06.000Z,101442.80
2019-05-30T20:47:35.921Z,101448.65
2019-05-30T20:50:06.037Z,101448.56
2019-05-30T20:52:32.879Z,101453.71
2019-05-30T20:54:59.649Z,101445.30
2019-05-30T20:57:26.563Z,101449.38
2019-05-30T20:59:53.381Z,101445.73
2019-05-30T21:02:20.264Z,101447.43
2019-05-30T21:04:47.507Z,101450.98
2019-05-30T21:07:15.575Z,101446.53
2019-05-30T21:09:44.212Z,101450.58
2019-05-30T21:12:14.209Z,101447.94
2019-05-30T21:14:45.913Z,101450.59
2019-05-30T21:17:15.287Z,101447.59
2019-05-30T21:19:46.019Z,101443.52
2019-05-30T21:22:13.169Z,101446.30
2019-05-30T21:24:40.671Z,101450.81
2019-05-30T21:27:07.451Z,101448.77
2019-05-30T21:29:34.215Z,101454.95
2019-05-30T21:32:01.276Z,101450.11
2019-05-30T21:34:28.256Z,101449.12
2019-05-30T21:36:55.086Z,101453.38
2019-05-30T21:39:21.861Z,101457.89
2019-05-30T21:41:48.610Z,101461.36
2019-05-30T21:44:15.676Z,101453.87
2019-05-30T21:46:42.621Z,101462.92
2019-05-30T21:49:09.681Z,101458.88
2019-05-30T21:51:39.220Z,101458.12
2019-05-30T21:54:06.236Z,101462.98
2019-05-30T21:56:32.945Z,101463.72
2019-05-30T21:58:59.567Z,101452.06
2019-05-30T22:01:31.457Z,101456.63
2019-05-30T22:03:58.462Z,101462.67
2019-05-30T22:06:25.376Z,101462.27
2019-05-30T22:08:51.991Z,101467.66
2019-05-30T22:11:19.621Z,101467.22
2019-05-30T22:13:47.561Z,101465.41
2019-05-30T22:16:14.986Z,101462.48
2019-05-30T22:18:41.914Z,101464.94
2019-05-30T22:21:08.876Z,101470.51
2019-05-30T22:23:35.766Z,101459.78
2019-05-30T22:26:02.602Z,101465.84
2019-05-30T22:28:29.306Z,101462.09
2019-05-30T22:30:55.958Z,101460.72
2019-05-30T22:33:22.916Z,101462.08
2019-05-30T22:35:49.494Z,101462.25
2019-05-30T22:38:16.148Z,101461.45
2019-05-30T22:40:43.755Z,101459.52
2019-05-30T22:43:24.481Z,101462.59
2019-05-30T22:45:39.278Z,101459.78
2019-05-30T22:48:05.899Z,101464.39
2019-05-30T22:50:33.648Z,101464.81
2019-05-30T22:53:00.442Z,101464.80
2019-05-30T22:55:27.074Z,101465.29
2019-05-30T22:57:53.695Z,101460.47
2019-05-30T23:00:20.686Z,101461.11
2019-05-30T23:02:47.882Z,101458.80
2019-05-30T23:05:14.900Z,101463.38
2019-05-30T23:07:41.493Z,101457.27
2019-05-30T23:10:08.663Z,101459.14
2019-05-30T23:12:35.276Z,101455.04
2019-05-30T23:15:05.298Z,101463.41
2019-05-30T23:17:32.140Z,101455.72
2019-05-30T23:19:58.794Z,101452.52
2019-05-30T23:22:25.668Z,101451.66
2019-05-30T23:24:53.871Z,101451.52
2019-05-30T23:27:23.700Z,101448.04
2019-05-30T23:29:51.688Z,101453.56
2019-05-30T23:32:18.828Z,101456.45
2019-05-30T23:34:48.111Z,101453.86
2019-05-30T23:37:15.047Z,101451.95
2019-05-30T23:39:41.805Z,101463.09
2019-05-30T23:42:08.541Z,101461.08
2019-05-30T23:44:35.332Z,101459.44
2019-05-30T23:47:01.966Z,101460.75
2019-05-30T23:49:28.736Z,101459.31
2019-05-30T23:51:56.215Z,101464.80
2019-05-30T23:54:23.484Z,101456.05
2019-05-30T23:56:50.525Z,101464.25
2019-05-30T23:59:17.422Z,101457.32
